sensor_id;sensor_type;location;lat;lon;timestamp;temperature;humidity
15257;DHT22;7731;50.720;6.912;2022-08-16T00:00:28;20.10;25.30
15257;DHT22;7731;50.720;6.912;2022-08-16T00:03:08;20.10;22.40
15257;DHT22;7731;50.720;6.912;2022-08-16T00:05:41;20.10;22.00
15257;DHT22;7731;50.720;6.912;2022-08-16T00:08:15;20.10;25.40
15257;DHT22;7731;50.720;6.912;2022-08-16T00:11:03;20.10;28.00
15257;DHT22;7731;50.720;6.912;2022-08-16T00:13:43;20.10;37.90
15257;DHT22;7731;50.720;6.912;2022-08-16T00:16:21;20.10;31.10
15257;DHT22;7731;50.720;6.912;2022-08-16T00:19:17;20.10;46.00
15257;DHT22;7731;50.720;6.912;2022-08-16T00:21:54;20.10;48.00
15257;DHT22;7731;50.720;6.912;2022-08-16T00:24:36;20.10;33.30
15257;DHT22;7731;50.720;6.912;2022-08-16T00:27:10;20.20;13.60
15257;DHT22;7731;50.720;6.912;2022-08-16T00:29:41;20.30;14.80
15257;DHT22;7731;50.720;6.912;2022-08-16T00:32:35;20.30;7.10
15257;DHT22;7731;50.720;6.912;2022-08-16T00:35:12;20.40;1.00
15257;DHT22;7731;50.720;6.912;2022-08-16T00:37:49;20.50;1.00
15257;DHT22;7731;50.720;6.912;2022-08-16T00:40:28;20.60;1.00
15257;DHT22;7731;50.720;6.912;2022-08-16T00:43:12;20.70;1.00
15257;DHT22;7731;50.720;6.912;2022-08-16T00:45:50;20.70;1.00
15257;DHT22;7731;50.720;6.912;2022-08-16T00:48:46;20.70;1.00
15257;DHT22;7731;50.720;6.912;2022-08-16T00:51:22;20.70;1.00
15257;DHT22;7731;50.720;6.912;2022-08-16T00:53:56;20.80;1.00
15257;DHT22;7731;50.720;6.912;2022-08-16T00:56:31;20.70;1.00
15257;DHT22;7731;50.720;6.912;2022-08-16T00:59:26;20.70;1.00
15257;DHT22;7731;50.720;6.912;2022-08-16T01:02:00;20.70;1.00
15257;DHT22;7731;50.720;6.912;2022-08-16T01:04:51;20.70;1.00
15257;DHT22;7731;50.720;6.912;2022-08-16T01:07:41;20.70;1.00
15257;DHT22;7731;50.720;6.912;2022-08-16T01:10:19;20.70;1.00
15257;DHT22;7731;50.720;6.912;2022-08-16T01:13:00;20.80;1.00
15257;DHT22;7731;50.720;6.912;2022-08-16T01:15:39;20.80;1.00
15257;DHT22;7731;50.720;6.912;2022-08-16T01:18:20;20.80;1.00
15257;DHT22;7731;50.720;6.912;2022-08-16T01:21:15;20.80;1.00
15257;DHT22;7731;50.720;6.912;2022-08-16T01:24:13;20.70;1.00
15257;DHT22;7731;50.720;6.912;2022-08-16T01:27:10;20.80;1.00
15257;DHT22;7731;50.720;6.912;2022-08-16T01:29:48;20.70;1.00
15257;DHT22;7731;50.720;6.912;2022-08-16T01:32:49;20.70;1.00
15257;DHT22;7731;50.720;6.912;2022-08-16T01:35:43;20.70;1.00
15257;DHT22;7731;50.720;6.912;2022-08-16T01:38:23;20.70;1.00
15257;DHT22;7731;50.720;6.912;2022-08-16T01:40:59;20.70;1.00
15257;DHT22;7731;50.720;6.912;2022-08-16T01:43:34;20.60;1.00
15257;DHT22;7731;50.720;6.912;2022-08-16T01:46:16;20.50;1.00
15257;DHT22;7731;50.720;6.912;2022-08-16T01:49:09;20.50;1.00
15257;DHT22;7731;50.720;6.912;2022-08-16T01:51:42;20.50;1.00
15257;DHT22;7731;50.720;6.912;2022-08-16T01:54:15;20.50;1.00
15257;DHT22;7731;50.720;6.912;2022-08-16T01:57:00;20.50;1.00
15257;DHT22;7731;50.720;6.912;2022-08-16T01:59:38;20.50;1.00
15257;DHT22;7731;50.720;6.912;2022-08-16T02:02:08;20.40;1.00
15257;DHT22;7731;50.720;6.912;2022-08-16T02:04:54;20.40;1.00
15257;DHT22;7731;50.720;6.912;2022-08-16T02:07:26;20.40;1.00
15257;DHT22;7731;50.720;6.912;2022-08-16T02:09:58;20.40;1.00
15257;DHT22;7731;50.720;6.912;2022-08-16T02:12:31;20.40;1.00
15257;DHT22;7731;50.720;6.912;2022-08-16T02:15:24;20.30;1.00
15257;DHT22;7731;50.720;6.912;2022-08-16T02:18:08;20.20;4.70
15257;DHT22;7731;50.720;6.912;2022-08-16T02:20:40;20.10;16.70
15257;DHT22;7731;50.720;6.912;2022-08-16T02:23:13;20.00;20.30
15257;DHT22;7731;50.720;6.912;2022-08-16T02:25:46;20.00;14.90
15257;DHT22;7731;50.720;6.912;2022-08-16T02:28:23;20.00;28.00
15257;DHT22;7731;50.720;6.912;2022-08-16T02:30:57;19.90;42.00
15257;DHT22;7731;50.720;6.912;2022-08-16T02:33:31;19.80;45.50
15257;DHT22;7731;50.720;6.912;2022-08-16T02:36:11;19.80;44.70
15257;DHT22;7731;50.720;6.912;2022-08-16T02:39:04;19.90;41.80
15257;DHT22;7731;50.720;6.912;2022-08-16T02:41:37;19.80;38.80
15257;DHT22;7731;50.720;6.912;2022-08-16T02:44:12;19.80;44.30
15257;DHT22;7731;50.720;6.912;2022-08-16T02:46:46;19.80;43.50
15257;DHT22;7731;50.720;6.912;2022-08-16T02:49:20;19.80;43.50
15257;DHT22;7731;50.720;6.912;2022-08-16T02:52:11;19.90;35.80
15257;DHT22;7731;50.720;6.912;2022-08-16T02:54:50;19.80;35.50
15257;DHT22;7731;50.720;6.912;2022-08-16T02:57:21;19.70;53.80
15257;DHT22;7731;50.720;6.912;2022-08-16T02:59:55;19.70;57.50
15257;DHT22;7731;50.720;6.912;2022-08-16T03:02:30;19.70;67.60
15257;DHT22;7731;50.720;6.912;2022-08-16T03:05:01;19.70;60.90
15257;DHT22;7731;50.720;6.912;2022-08-16T03:07:37;19.70;46.10
15257;DHT22;7731;50.720;6.912;2022-08-16T03:10:17;19.80;46.80
15257;DHT22;7731;50.720;6.912;2022-08-16T03:12:59;19.70;61.50
15257;DHT22;7731;50.720;6.912;2022-08-16T03:15:41;19.60;72.40
15257;DHT22;7731;50.720;6.912;2022-08-16T03:18:23;19.60;89.00
15257;DHT22;7731;50.720;6.912;2022-08-16T03:21:08;19.40;92.10
15257;DHT22;7731;50.720;6.912;2022-08-16T03:23:40;19.40;97.10
15257;DHT22;7731;50.720;6.912;2022-08-16T03:26:14;19.40;93.80
15257;DHT22;7731;50.720;6.912;2022-08-16T03:28:45;19.40;96.70
15257;DHT22;7731;50.720;6.912;2022-08-16T03:31:20;19.40;93.70
15257;DHT22;7731;50.720;6.912;2022-08-16T03:34:00;19.40;97.90
15257;DHT22;7731;50.720;6.912;2022-08-16T03:36:31;19.30;99.90
15257;DHT22;7731;50.720;6.912;2022-08-16T03:39:02;19.30;99.90
15257;DHT22;7731;50.720;6.912;2022-08-16T03:41:46;19.20;99.90
15257;DHT22;7731;50.720;6.912;2022-08-16T03:44:26;19.20;99.90
15257;DHT22;7731;50.720;6.912;2022-08-16T03:47:13;19.20;99.90
15257;DHT22;7731;50.720;6.912;2022-08-16T03:49:47;19.20;99.90
15257;DHT22;7731;50.720;6.912;2022-08-16T03:52:21;19.20;99.90
15257;DHT22;7731;50.720;6.912;2022-08-16T03:54:57;19.20;99.90
15257;DHT22;7731;50.720;6.912;2022-08-16T03:57:31;19.10;99.90
15257;DHT22;7731;50.720;6.912;2022-08-16T04:00:05;19.10;99.90
15257;DHT22;7731;50.720;6.912;2022-08-16T04:03:06;19.10;99.90
15257;DHT22;7731;50.720;6.912;2022-08-16T04:05:41;19.10;99.90
15257;DHT22;7731;50.720;6.912;2022-08-16T04:08:14;19.10;99.90
15257;DHT22;7731;50.720;6.912;2022-08-16T04:10:52;19.10;99.90
15257;DHT22;7731;50.720;6.912;2022-08-16T04:13:26;19.10;99.90
15257;DHT22;7731;50.720;6.912;2022-08-16T04:16:17;19.00;99.90
15257;DHT22;7731;50.720;6.912;2022-08-16T04:18:56;19.00;99.90
15257;DHT22;7731;50.720;6.912;2022-08-16T04:21:30;18.90;99.90
15257;DHT22;7731;50.720;6.912;2022-08-16T04:24:02;18.90;99.90
15257;DHT22;7731;50.720;6.912;2022-08-16T04:26:37;19.00;99.90
15257;DHT22;7731;50.720;6.912;2022-08-16T04:29:13;19.00;99.90
15257;DHT22;7731;50.720;6.912;2022-08-16T04:31:52;19.00;99.90
15257;DHT22;7731;50.720;6.912;2022-08-16T04:34:32;19.00;99.90
15257;DHT22;7731;50.720;6.912;2022-08-16T04:37:06;18.90;99.90
15257;DHT22;7731;50.720;6.912;2022-08-16T04:39:37;18.90;99.90
15257;DHT22;7731;50.720;6.912;2022-08-16T04:42:20;18.90;99.90
15257;DHT22;7731;50.720;6.912;2022-08-16T04:44:55;19.00;99.90
15257;DHT22;7731;50.720;6.912;2022-08-16T04:47:30;19.00;99.90
15257;DHT22;7731;50.720;6.912;2022-08-16T04:50:10;19.10;99.90
15257;DHT22;7731;50.720;6.912;2022-08-16T04:52:45;19.10;99.90
15257;DHT22;7731;50.720;6.912;2022-08-16T04:55:18;19.20;99.90
15257;DHT22;7731;50.720;6.912;2022-08-16T04:58:05;19.20;99.90
15257;DHT22;7731;50.720;6.912;2022-08-16T05:00:57;19.20;99.90
15257;DHT22;7731;50.720;6.912;2022-08-16T05:03:33;19.30;99.90
15257;DHT22;7731;50.720;6.912;2022-08-16T05:06:30;19.40;99.90
15257;DHT22;7731;50.720;6.912;2022-08-16T05:09:11;19.40;99.90
15257;DHT22;7731;50.720;6.912;2022-08-16T05:11:42;19.40;99.90
15257;DHT22;7731;50.720;6.912;2022-08-16T05:14:15;19.40;99.90
15257;DHT22;7731;50.720;6.912;2022-08-16T05:17:05;19.50;99.90
15257;DHT22;7731;50.720;6.912;2022-08-16T05:19:39;19.60;92.90
15257;DHT22;7731;50.720;6.912;2022-08-16T05:22:28;19.70;84.40
15257;DHT22;7731;50.720;6.912;2022-08-16T05:25:00;19.70;84.00
15257;DHT22;7731;50.720;6.912;2022-08-16T05:27:35;19.70;88.70
15257;DHT22;7731;50.720;6.912;2022-08-16T05:30:13;19.80;91.90
15257;DHT22;7731;50.720;6.912;2022-08-16T05:33:01;19.90;71.80
15257;DHT22;7731;50.720;6.912;2022-08-16T05:35:42;20.00;51.00
15257;DHT22;7731;50.720;6.912;2022-08-16T05:38:24;20.00;55.90
15257;DHT22;7731;50.720;6.912;2022-08-16T05:41:05;20.00;46.30
15257;DHT22;7731;50.720;6.912;2022-08-16T05:43:39;20.20;37.00
15257;DHT22;7731;50.720;6.912;2022-08-16T05:46:15;20.20;32.70
15257;DHT22;7731;50.720;6.912;2022-08-16T05:48:57;20.20;39.30
15257;DHT22;7731;50.720;6.912;2022-08-16T05:51:35;20.30;28.90
15257;DHT22;7731;50.720;6.912;2022-08-16T05:54:11;20.30;39.50
15257;DHT22;7731;50.720;6.912;2022-08-16T05:56:52;20.50;25.80
15257;DHT22;7731;50.720;6.912;2022-08-16T05:59:26;20.60;11.30
15257;DHT22;7731;50.720;6.912;2022-08-16T06:01:58;20.70;1.00
15257;DHT22;7731;50.720;6.912;2022-08-16T06:04:32;20.90;1.00
15257;DHT22;7731;50.720;6.912;2022-08-16T06:07:08;21.20;1.00
15257;DHT22;7731;50.720;6.912;2022-08-16T06:09:55;21.30;1.00
15257;DHT22;7731;50.720;6.912;2022-08-16T06:12:27;22.10;1.00
15257;DHT22;7731;50.720;6.912;2022-08-16T06:15:00;23.80;99.90
15257;DHT22;7731;50.720;6.912;2022-08-16T06:17:35;26.10;1.00
15257;DHT22;7731;50.720;6.912;2022-08-16T06:20:12;28.00;99.90
15257;DHT22;7731;50.720;6.912;2022-08-16T06:22:52;29.40;1.00
15257;DHT22;7731;50.720;6.912;2022-08-16T06:25:40;30.10;1.00
15257;DHT22;7731;50.720;6.912;2022-08-16T06:28:19;30.70;99.90
15257;DHT22;7731;50.720;6.912;2022-08-16T06:31:03;31.00;99.90
15257;DHT22;7731;50.720;6.912;2022-08-16T06:33:38;31.10;99.90
15257;DHT22;7731;50.720;6.912;2022-08-16T06:36:12;30.70;99.90
15257;DHT22;7731;50.720;6.912;2022-08-16T06:38:46;30.90;99.90
15257;DHT22;7731;50.720;6.912;2022-08-16T06:41:25;31.40;99.90
15257;DHT22;7731;50.720;6.912;2022-08-16T06:44:06;31.70;99.90
15257;DHT22;7731;50.720;6.912;2022-08-16T06:46:50;31.60;99.90
15257;DHT22;7731;50.720;6.912;2022-08-16T06:49:21;32.60;99.90
15257;DHT22;7731;50.720;6.912;2022-08-16T06:51:57;32.50;99.90
15257;DHT22;7731;50.720;6.912;2022-08-16T06:54:29;31.90;99.90
15257;DHT22;7731;50.720;6.912;2022-08-16T06:57:03;31.60;99.90
15257;DHT22;7731;50.720;6.912;2022-08-16T06:59:42;32.10;99.90
15257;DHT22;7731;50.720;6.912;2022-08-16T07:02:24;31.60;99.90
15257;DHT22;7731;50.720;6.912;2022-08-16T07:04:59;31.20;99.90
15257;DHT22;7731;50.720;6.912;2022-08-16T07:07:42;30.90;99.90
15257;DHT22;7731;50.720;6.912;2022-08-16T07:10:17;31.10;99.90
15257;DHT22;7731;50.720;6.912;2022-08-16T07:12:55;31.10;99.90
15257;DHT22;7731;50.720;6.912;2022-08-16T07:15:34;32.00;99.90
15257;DHT22;7731;50.720;6.912;2022-08-16T07:18:17;32.50;99.90
15257;DHT22;7731;50.720;6.912;2022-08-16T07:20:51;32.90;99.90
15257;DHT22;7731;50.720;6.912;2022-08-16T07:23:27;32.60;99.90
15257;DHT22;7731;50.720;6.912;2022-08-16T07:26:09;34.10;99.90
15257;DHT22;7731;50.720;6.912;2022-08-16T07:28:54;33.70;99.90
15257;DHT22;7731;50.720;6.912;2022-08-16T07:31:24;33.30;99.90
15257;DHT22;7731;50.720;6.912;2022-08-16T07:34:04;33.20;99.90
15257;DHT22;7731;50.720;6.912;2022-08-16T07:36:36;33.70;99.90
15257;DHT22;7731;50.720;6.912;2022-08-16T07:39:19;32.80;99.90
15257;DHT22;7731;50.720;6.912;2022-08-16T07:41:53;32.90;99.90
15257;DHT22;7731;50.720;6.912;2022-08-16T07:44:26;32.90;99.90
15257;DHT22;7731;50.720;6.912;2022-08-16T07:47:16;33.00;99.90
15257;DHT22;7731;50.720;6.912;2022-08-16T07:49:58;32.60;99.90
15257;DHT22;7731;50.720;6.912;2022-08-16T07:52:34;33.70;99.90
15257;DHT22;7731;50.720;6.912;2022-08-16T07:55:09;34.50;99.90
15257;DHT22;7731;50.720;6.912;2022-08-16T07:57:42;34.10;99.90
15257;DHT22;7731;50.720;6.912;2022-08-16T08:00:32;34.50;99.90
15257;DHT22;7731;50.720;6.912;2022-08-16T08:03:05;36.40;99.90
15257;DHT22;7731;50.720;6.912;2022-08-16T08:05:36;37.80;99.90
15257;DHT22;7731;50.720;6.912;2022-08-16T08:08:10;38.20;99.90
15257;DHT22;7731;50.720;6.912;2022-08-16T08:11:02;36.70;99.90
15257;DHT22;7731;50.720;6.912;2022-08-16T08:13:36;35.80;99.90
15257;DHT22;7731;50.720;6.912;2022-08-16T08:16:11;35.10;99.90
15257;DHT22;7731;50.720;6.912;2022-08-16T08:18:45;34.20;99.90
15257;DHT22;7731;50.720;6.912;2022-08-16T08:21:26;34.20;99.90
15257;DHT22;7731;50.720;6.912;2022-08-16T08:24:17;34.60;99.90
15257;DHT22;7731;50.720;6.912;2022-08-16T08:26:59;33.70;99.90
15257;DHT22;7731;50.720;6.912;2022-08-16T08:29:34;34.30;99.90
15257;DHT22;7731;50.720;6.912;2022-08-16T08:32:11;35.10;99.90
15257;DHT22;7731;50.720;6.912;2022-08-16T08:35:02;35.30;99.90
15257;DHT22;7731;50.720;6.912;2022-08-16T08:37:34;35.50;99.90
15257;DHT22;7731;50.720;6.912;2022-08-16T08:40:24;35.10;99.90
15257;DHT22;7731;50.720;6.912;2022-08-16T08:42:58;35.20;99.90
15257;DHT22;7731;50.720;6.912;2022-08-16T08:45:38;35.50;99.90
15257;DHT22;7731;50.720;6.912;2022-08-16T08:48:18;36.70;99.90
15257;DHT22;7731;50.720;6.912;2022-08-16T08:51:00;35.90;99.90
15257;DHT22;7731;50.720;6.912;2022-08-16T08:53:35;35.80;99.90
15257;DHT22;7731;50.720;6.912;2022-08-16T08:56:07;35.70;99.90
15257;DHT22;7731;50.720;6.912;2022-08-16T08:58:51;35.70;99.90
15257;DHT22;7731;50.720;6.912;2022-08-16T09:01:29;36.60;99.90
15257;DHT22;7731;50.720;6.912;2022-08-16T09:04:11;36.50;99.90
15257;DHT22;7731;50.720;6.912;2022-08-16T09:06:44;36.00;99.90
15257;DHT22;7731;50.720;6.912;2022-08-16T09:09:14;36.70;99.90
15257;DHT22;7731;50.720;6.912;2022-08-16T09:11:45;36.00;99.90
15257;DHT22;7731;50.720;6.912;2022-08-16T09:14:32;37.50;99.90
15257;DHT22;7731;50.720;6.912;2022-08-16T09:17:17;36.70;99.90
15257;DHT22;7731;50.720;6.912;2022-08-16T09:20:14;35.90;99.90
15257;DHT22;7731;50.720;6.912;2022-08-16T09:22:49;35.20;99.90
15257;DHT22;7731;50.720;6.912;2022-08-16T09:25:20;35.20;99.90
15257;DHT22;7731;50.720;6.912;2022-08-16T09:27:59;35.30;99.90
15257;DHT22;7731;50.720;6.912;2022-08-16T09:30:36;35.50;99.90
15257;DHT22;7731;50.720;6.912;2022-08-16T09:33:11;35.10;99.90
15257;DHT22;7731;50.720;6.912;2022-08-16T09:35:50;34.30;99.90
15257;DHT22;7731;50.720;6.912;2022-08-16T09:38:21;34.50;99.90
15257;DHT22;7731;50.720;6.912;2022-08-16T09:40:59;35.50;99.90
15257;DHT22;7731;50.720;6.912;2022-08-16T09:43:40;37.00;99.90
15257;DHT22;7731;50.720;6.912;2022-08-16T09:46:27;36.20;99.90
15257;DHT22;7731;50.720;6.912;2022-08-16T09:49:12;35.50;99.90
15257;DHT22;7731;50.720;6.912;2022-08-16T09:51:50;35.90;99.90
15257;DHT22;7731;50.720;6.912;2022-08-16T09:54:25;35.00;99.90
15257;DHT22;7731;50.720;6.912;2022-08-16T09:56:59;34.70;99.90
15257;DHT22;7731;50.720;6.912;2022-08-16T09:59:31;35.40;99.90
15257;DHT22;7731;50.720;6.912;2022-08-16T10:02:06;35.60;99.90
15257;DHT22;7731;50.720;6.912;2022-08-16T10:04:54;34.80;99.90
15257;DHT22;7731;50.720;6.912;2022-08-16T10:07:32;35.40;99.90
15257;DHT22;7731;50.720;6.912;2022-08-16T10:10:11;34.50;99.90
15257;DHT22;7731;50.720;6.912;2022-08-16T10:12:56;34.20;99.90
15257;DHT22;7731;50.720;6.912;2022-08-16T10:15:45;34.10;99.90
15257;DHT22;7731;50.720;6.912;2022-08-16T10:18:25;34.70;99.90
15257;DHT22;7731;50.720;6.912;2022-08-16T10:21:16;34.60;99.90
15257;DHT22;7731;50.720;6.912;2022-08-16T10:23:52;34.60;99.90
15257;DHT22;7731;50.720;6.912;2022-08-16T10:26:24;35.80;99.90
15257;DHT22;7731;50.720;6.912;2022-08-16T10:29:16;35.70;99.90
15257;DHT22;7731;50.720;6.912;2022-08-16T10:31:47;35.70;99.90
15257;DHT22;7731;50.720;6.912;2022-08-16T10:34:21;35.00;99.90
15257;DHT22;7731;50.720;6.912;2022-08-16T10:36:58;35.00;99.90
15257;DHT22;7731;50.720;6.912;2022-08-16T10:39:32;35.40;99.90
15257;DHT22;7731;50.720;6.912;2022-08-16T10:42:08;35.50;99.90
15257;DHT22;7731;50.720;6.912;2022-08-16T10:44:41;35.20;99.90
15257;DHT22;7731;50.720;6.912;2022-08-16T10:47:20;35.80;99.90
15257;DHT22;7731;50.720;6.912;2022-08-16T10:49:55;36.10;99.90
15257;DHT22;7731;50.720;6.912;2022-08-16T10:52:28;36.30;99.90
15257;DHT22;7731;50.720;6.912;2022-08-16T10:55:22;37.50;99.90
15257;DHT22;7731;50.720;6.912;2022-08-16T10:58:13;38.30;99.90
15257;DHT22;7731;50.720;6.912;2022-08-16T11:00:45;37.50;99.90
15257;DHT22;7731;50.720;6.912;2022-08-16T11:03:23;36.70;99.90
15257;DHT22;7731;50.720;6.912;2022-08-16T11:06:10;35.50;99.90
15257;DHT22;7731;50.720;6.912;2022-08-16T11:08:41;35.40;99.90
15257;DHT22;7731;50.720;6.912;2022-08-16T11:11:14;36.10;99.90
15257;DHT22;7731;50.720;6.912;2022-08-16T11:13:46;35.90;99.90
15257;DHT22;7731;50.720;6.912;2022-08-16T11:16:37;35.30;99.90
15257;DHT22;7731;50.720;6.912;2022-08-16T11:19:28;34.90;99.90
15257;DHT22;7731;50.720;6.912;2022-08-16T11:22:19;35.80;99.90
15257;DHT22;7731;50.720;6.912;2022-08-16T11:25:10;36.70;99.90
15257;DHT22;7731;50.720;6.912;2022-08-16T11:28:06;36.60;99.90
15257;DHT22;7731;50.720;6.912;2022-08-16T11:30:37;35.80;99.90
15257;DHT22;7731;50.720;6.912;2022-08-16T11:33:07;35.50;99.90
15257;DHT22;7731;50.720;6.912;2022-08-16T11:35:39;35.10;99.90
15257;DHT22;7731;50.720;6.912;2022-08-16T11:38:30;35.30;99.90
15257;DHT22;7731;50.720;6.912;2022-08-16T11:41:20;34.30;99.90
15257;DHT22;7731;50.720;6.912;2022-08-16T11:43:58;33.70;99.90
15257;DHT22;7731;50.720;6.912;2022-08-16T11:46:29;33.40;99.90
15257;DHT22;7731;50.720;6.912;2022-08-16T11:49:12;33.30;99.90
15257;DHT22;7731;50.720;6.912;2022-08-16T11:51:43;33.60;99.90
15257;DHT22;7731;50.720;6.912;2022-08-16T11:54:15;33.60;99.90
15257;DHT22;7731;50.720;6.912;2022-08-16T11:56:59;33.50;99.90
15257;DHT22;7731;50.720;6.912;2022-08-16T11:59:38;33.30;99.90
15257;DHT22;7731;50.720;6.912;2022-08-16T12:02:08;33.10;99.90
15257;DHT22;7731;50.720;6.912;2022-08-16T12:04:58;32.70;99.90
15257;DHT22;7731;50.720;6.912;2022-08-16T12:07:29;32.50;99.90
15257;DHT22;7731;50.720;6.912;2022-08-16T12:10:05;32.70;99.90
15257;DHT22;7731;50.720;6.912;2022-08-16T12:12:40;32.60;99.90
15257;DHT22;7731;50.720;6.912;2022-08-16T12:15:15;32.90;99.90
15257;DHT22;7731;50.720;6.912;2022-08-16T12:17:45;33.10;99.90
15257;DHT22;7731;50.720;6.912;2022-08-16T12:20:22;33.30;99.90
15257;DHT22;7731;50.720;6.912;2022-08-16T12:22:56;33.30;99.90
15257;DHT22;7731;50.720;6.912;2022-08-16T12:25:29;33.30;99.90
15257;DHT22;7731;50.720;6.912;2022-08-16T12:28:06;33.60;99.90
15257;DHT22;7731;50.720;6.912;2022-08-16T12:30:42;33.40;99.90
15257;DHT22;7731;50.720;6.912;2022-08-16T12:33:16;33.80;99.90
15257;DHT22;7731;50.720;6.912;2022-08-16T12:35:52;34.00;99.90
15257;DHT22;7731;50.720;6.912;2022-08-16T12:38:22;33.70;99.90
15257;DHT22;7731;50.720;6.912;2022-08-16T12:41:14;33.10;99.90
15257;DHT22;7731;50.720;6.912;2022-08-16T12:43:51;33.30;99.90
15257;DHT22;7731;50.720;6.912;2022-08-16T12:46:29;33.70;99.90
15257;DHT22;7731;50.720;6.912;2022-08-16T12:49:03;34.00;99.90
15257;DHT22;7731;50.720;6.912;2022-08-16T12:51:36;33.90;99.90
15257;DHT22;7731;50.720;6.912;2022-08-16T12:54:25;33.50;99.90
15257;DHT22;7731;50.720;6.912;2022-08-16T12:56:57;33.40;99.90
15257;DHT22;7731;50.720;6.912;2022-08-16T12:59:31;32.90;99.90
15257;DHT22;7731;50.720;6.912;2022-08-16T13:02:07;32.70;99.90
15257;DHT22;7731;50.720;6.912;2022-08-16T13:04:57;32.60;99.90
15257;DHT22;7731;50.720;6.912;2022-08-16T13:07:28;32.50;99.90
15257;DHT22;7731;50.720;6.912;2022-08-16T13:10:10;32.20;99.90
15257;DHT22;7731;50.720;6.912;2022-08-16T13:13:03;32.20;99.90
15257;DHT22;7731;50.720;6.912;2022-08-16T13:15:38;32.10;99.90
15257;DHT22;7731;50.720;6.912;2022-08-16T13:18:29;32.10;99.90
15257;DHT22;7731;50.720;6.912;2022-08-16T13:21:03;32.40;99.90
15257;DHT22;7731;50.720;6.912;2022-08-16T13:23:37;32.70;99.90
15257;DHT22;7731;50.720;6.912;2022-08-16T13:26:10;32.60;99.90
15257;DHT22;7731;50.720;6.912;2022-08-16T13:28:43;32.50;99.90
15257;DHT22;7731;50.720;6.912;2022-08-16T13:31:14;32.60;99.90
15257;DHT22;7731;50.720;6.912;2022-08-16T13:33:52;32.40;99.90
15257;DHT22;7731;50.720;6.912;2022-08-16T13:36:25;32.10;99.90
15257;DHT22;7731;50.720;6.912;2022-08-16T13:39:15;31.90;99.90
15257;DHT22;7731;50.720;6.912;2022-08-16T13:41:46;31.90;99.90
15257;DHT22;7731;50.720;6.912;2022-08-16T13:44:20;32.00;99.90
15257;DHT22;7731;50.720;6.912;2022-08-16T13:47:10;32.10;99.90
15257;DHT22;7731;50.720;6.912;2022-08-16T13:49:43;32.40;99.90
15257;DHT22;7731;50.720;6.912;2022-08-16T13:52:14;32.60;99.90
15257;DHT22;7731;50.720;6.912;2022-08-16T13:54:45;32.80;99.90
15257;DHT22;7731;50.720;6.912;2022-08-16T13:57:17;32.50;99.90
15257;DHT22;7731;50.720;6.912;2022-08-16T14:00:08;32.50;99.90
15257;DHT22;7731;50.720;6.912;2022-08-16T14:02:45;32.50;99.90
15257;DHT22;7731;50.720;6.912;2022-08-16T14:05:18;32.20;99.90
15257;DHT22;7731;50.720;6.912;2022-08-16T14:07:53;32.00;99.90
15257;DHT22;7731;50.720;6.912;2022-08-16T14:10:23;31.90;99.90
15257;DHT22;7731;50.720;6.912;2022-08-16T14:12:54;31.80;99.90
15257;DHT22;7731;50.720;6.912;2022-08-16T14:15:27;31.80;99.90
15257;DHT22;7731;50.720;6.912;2022-08-16T14:17:58;31.60;99.90
15257;DHT22;7731;50.720;6.912;2022-08-16T14:20:49;31.60;99.90
15257;DHT22;7731;50.720;6.912;2022-08-16T14:23:19;31.40;99.90
15257;DHT22;7731;50.720;6.912;2022-08-16T14:25:52;31.40;99.90
15257;DHT22;7731;50.720;6.912;2022-08-16T14:28:23;31.10;99.90
15257;DHT22;7731;50.720;6.912;2022-08-16T14:30:53;31.10;99.90
15257;DHT22;7731;50.720;6.912;2022-08-16T14:33:26;31.10;99.90
15257;DHT22;7731;50.720;6.912;2022-08-16T14:36:01;31.00;99.90
15257;DHT22;7731;50.720;6.912;2022-08-16T14:38:34;31.00;99.90
15257;DHT22;7731;50.720;6.912;2022-08-16T14:41:05;31.00;99.90
15257;DHT22;7731;50.720;6.912;2022-08-16T14:43:36;31.10;99.90
15257;DHT22;7731;50.720;6.912;2022-08-16T14:46:06;31.20;99.90
15257;DHT22;7731;50.720;6.912;2022-08-16T14:48:37;31.40;99.90
15257;DHT22;7731;50.720;6.912;2022-08-16T14:51:09;31.50;99.90
15257;DHT22;7731;50.720;6.912;2022-08-16T14:53:42;31.60;99.90
15257;DHT22;7731;50.720;6.912;2022-08-16T14:56:18;31.60;99.90
15257;DHT22;7731;50.720;6.912;2022-08-16T14:59:09;31.50;99.90
15257;DHT22;7731;50.720;6.912;2022-08-16T15:01:39;31.40;99.90
15257;DHT22;7731;50.720;6.912;2022-08-16T15:04:24;31.30;99.90
15257;DHT22;7731;50.720;6.912;2022-08-16T15:07:17;31.30;99.90
15257;DHT22;7731;50.720;6.912;2022-08-16T15:09:50;31.40;99.90
15257;DHT22;7731;50.720;6.912;2022-08-16T15:12:28;31.20;99.90
15257;DHT22;7731;50.720;6.912;2022-08-16T15:15:07;31.10;99.90
15257;DHT22;7731;50.720;6.912;2022-08-16T15:17:43;31.20;99.90
15257;DHT22;7731;50.720;6.912;2022-08-16T15:20:20;31.30;99.90
15257;DHT22;7731;50.720;6.912;2022-08-16T15:22:55;31.70;99.90
15257;DHT22;7731;50.720;6.912;2022-08-16T15:25:30;32.00;99.90
15257;DHT22;7731;50.720;6.912;2022-08-16T15:28:09;32.00;99.90
15257;DHT22;7731;50.720;6.912;2022-08-16T15:30:58;32.10;99.90
15257;DHT22;7731;50.720;6.912;2022-08-16T15:33:34;31.80;99.90
15257;DHT22;7731;50.720;6.912;2022-08-16T15:36:12;31.50;99.90
15257;DHT22;7731;50.720;6.912;2022-08-16T15:38:51;31.50;99.90
15257;DHT22;7731;50.720;6.912;2022-08-16T15:41:58;31.60;99.90
15257;DHT22;7731;50.720;6.912;2022-08-16T15:44:32;31.30;99.90
15257;DHT22;7731;50.720;6.912;2022-08-16T15:47:19;31.20;99.90
15257;DHT22;7731;50.720;6.912;2022-08-16T15:49:54;31.10;99.90
15257;DHT22;7731;50.720;6.912;2022-08-16T15:52:28;31.10;99.90
15257;DHT22;7731;50.720;6.912;2022-08-16T15:55:06;31.00;99.90
15257;DHT22;7731;50.720;6.912;2022-08-16T15:57:59;30.90;1.00
15257;DHT22;7731;50.720;6.912;2022-08-16T16:00:49;30.80;1.00
15257;DHT22;7731;50.720;6.912;2022-08-16T16:03:22;30.60;1.00
15257;DHT22;7731;50.720;6.912;2022-08-16T16:06:00;30.60;1.00
15257;DHT22;7731;50.720;6.912;2022-08-16T16:08:32;30.60;1.00
15257;DHT22;7731;50.720;6.912;2022-08-16T16:11:10;30.60;1.00
15257;DHT22;7731;50.720;6.912;2022-08-16T16:13:41;30.50;1.00
15257;DHT22;7731;50.720;6.912;2022-08-16T16:16:17;30.60;1.00
15257;DHT22;7731;50.720;6.912;2022-08-16T16:18:50;30.70;1.00
15257;DHT22;7731;50.720;6.912;2022-08-16T16:21:20;31.00;99.90
15257;DHT22;7731;50.720;6.912;2022-08-16T16:23:53;31.30;99.90
15257;DHT22;7731;50.720;6.912;2022-08-16T16:26:46;31.50;99.90
15257;DHT22;7731;50.720;6.912;2022-08-16T16:29:17;31.60;99.90
15257;DHT22;7731;50.720;6.912;2022-08-16T16:31:49;31.60;99.90
15257;DHT22;7731;50.720;6.912;2022-08-16T16:34:26;31.60;99.90
15257;DHT22;7731;50.720;6.912;2022-08-16T16:37:02;31.30;99.90
15257;DHT22;7731;50.720;6.912;2022-08-16T16:39:36;31.30;99.90
15257;DHT22;7731;50.720;6.912;2022-08-16T16:42:09;31.40;99.90
15257;DHT22;7731;50.720;6.912;2022-08-16T16:44:56;31.30;1.00
15257;DHT22;7731;50.720;6.912;2022-08-16T16:47:29;31.20;99.90
15257;DHT22;7731;50.720;6.912;2022-08-16T16:50:15;30.90;99.90
15257;DHT22;7731;50.720;6.912;2022-08-16T16:52:51;30.80;1.00
15257;DHT22;7731;50.720;6.912;2022-08-16T16:55:25;30.80;1.00
15257;DHT22;7731;50.720;6.912;2022-08-16T16:57:59;30.90;99.90